METAR Formatted Surface Weather Observation
Issued by NWS

Home | Current Version | Previous Version | Text Only | Print | Product List | Glossary On
Versions: 1 2 3 4 5 6 7 8 9 10 11 12 13 14 15 16 17 18 19 20
000
SAUS41 KLWX 192359 COR
MTRNAK
METAR KNAK 192354Z AUTO 30009G18KT 10SM OVC075 08/M03 A2986 RMK AO2
SLP114 T00831028 10117 20083 53028



USA.gov is the U.S. government's official web portal to all federal, state and local government web resources and services.